createdAt,value
2018-11-01T00:00:24.339Z,4.63
2018-11-01T00:04:31.349Z,3.80
2018-11-01T00:08:38.041Z,3.63
2018-11-01T00:12:45.228Z,4.07
2018-11-01T00:16:51.946Z,4.70
2018-11-01T00:20:58.593Z,4.47
2018-11-01T00:25:05.565Z,4.10
2018-11-01T00:29:12.107Z,4.03
2018-11-01T00:33:18.925Z,3.73
2018-11-01T00:37:25.617Z,3.90
2018-11-01T00:41:32.261Z,4.00
2018-11-01T00:45:38.992Z,3.70
2018-11-01T00:49:46.101Z,3.13
2018-11-01T00:53:52.835Z,3.43
2018-11-01T00:57:59.489Z,3.10
2018-11-01T01:02:06.829Z,4.10
2018-11-01T01:06:13.514Z,3.50
2018-11-01T01:10:20.179Z,4.50
2018-11-01T01:14:27.021Z,3.57
2018-11-01T01:18:33.814Z,3.30
2018-11-01T01:22:41.050Z,3.67
2018-11-01T01:26:49.034Z,3.60
2018-11-01T01:30:55.691Z,4.00
2018-11-01T01:35:02.599Z,3.57
2018-11-01T01:39:11.125Z,3.53
2018-11-01T01:43:17.825Z,3.60
2018-11-01T01:47:24.522Z,3.70
2018-11-01T01:51:31.239Z,4.27
2018-11-01T01:55:38.019Z,3.93
2018-11-01T01:59:44.712Z,4.10
2018-11-01T02:03:51.493Z,4.00
2018-11-01T02:07:58.102Z,3.90
2018-11-01T02:12:04.816Z,4.20
2018-11-01T02:16:11.738Z,3.80
2018-11-01T02:20:19.575Z,4.13
2018-11-01T02:24:26.270Z,4.13
2018-11-01T02:28:32.952Z,3.73
2018-11-01T02:32:39.950Z,4.13
2018-11-01T02:36:46.627Z,3.93
2018-11-01T02:40:53.340Z,4.03
2018-11-01T02:45:00.039Z,4.13
2018-11-01T02:49:07.403Z,3.93
2018-11-01T02:53:14.058Z,4.17
2018-11-01T02:57:20.968Z,4.47
2018-11-01T03:01:27.672Z,4.07
2018-11-01T03:05:34.321Z,4.50
2018-11-01T03:09:40.982Z,4.20
2018-11-01T03:13:47.761Z,4.07
2018-11-01T03:17:54.501Z,4.67
2018-11-01T03:22:01.251Z,4.60
2018-11-01T03:26:07.941Z,4.17
2018-11-01T03:30:14.775Z,5.73
2018-11-01T03:34:21.390Z,4.60
2018-11-01T03:38:28.406Z,4.40
2018-11-01T03:42:35.014Z,4.33
2018-11-01T03:46:42.555Z,4.47
2018-11-01T03:50:49.248Z,4.33
2018-11-01T03:54:56.015Z,4.40
2018-11-01T03:59:02.713Z,4.77
2018-11-01T04:03:09.487Z,4.37
2018-11-01T04:07:16.295Z,4.93
2018-11-01T04:11:22.989Z,5.27
2018-11-01T04:15:29.806Z,5.30
2018-11-01T04:19:36.497Z,4.50
2018-11-01T04:23:43.215Z,4.90
2018-11-01T04:27:49.900Z,4.27
2018-11-01T04:31:56.611Z,4.60
2018-11-01T04:36:03.478Z,4.60
2018-11-01T04:40:10.766Z,4.77
2018-11-01T04:44:17.451Z,4.90
2018-11-01T04:48:24.185Z,4.83
2018-11-01T04:52:30.917Z,4.90
2018-11-01T04:56:37.633Z,5.00
2018-11-01T05:00:44.348Z,5.37
2018-11-01T05:04:51.050Z,4.50
2018-11-01T05:08:57.719Z,4.80
2018-11-01T05:13:05.541Z,5.80
2018-11-01T05:17:12.320Z,5.33
2018-11-01T05:21:18.920Z,5.43
2018-11-01T05:25:25.646Z,5.00
2018-11-01T05:29:32.339Z,4.70
2018-11-01T05:33:38.952Z,5.13
2018-11-01T05:37:45.679Z,4.80
2018-11-01T05:41:52.419Z,4.83
2018-11-01T05:45:59.630Z,4.80
2018-11-01T05:50:06.547Z,4.90
2018-11-01T05:54:14.015Z,5.23
2018-11-01T05:58:20.880Z,5.50
2018-11-01T06:02:34.555Z,5.10
2018-11-01T06:06:41.795Z,5.97
2018-11-01T06:10:48.551Z,5.27
2018-11-01T06:14:55.172Z,5.10
2018-11-01T06:19:01.856Z,5.13
2018-11-01T06:23:08.850Z,4.83
2018-11-01T06:27:15.487Z,8.87
2018-11-01T06:31:22.190Z,4.80
2018-11-01T06:35:33.947Z,4.90
2018-11-01T06:39:40.673Z,4.73
2018-11-01T06:43:47.410Z,5.27
2018-11-01T06:47:56.722Z,4.77
2018-11-01T06:52:03.508Z,4.53
2018-11-01T06:56:10.235Z,4.63
2018-11-01T07:00:17.315Z,5.40
2018-11-01T07:04:24.327Z,4.80
2018-11-01T07:08:33.049Z,5.47
2018-11-01T07:12:42.945Z,5.30
2018-11-01T07:16:50.345Z,5.20
2018-11-01T07:20:58.377Z,5.40
2018-11-01T07:25:05.395Z,5.33
2018-11-01T07:29:12.147Z,5.50
2018-11-01T07:33:18.983Z,5.23
2018-11-01T07:37:33.225Z,5.37
2018-11-01T07:41:43.300Z,5.77
2018-11-01T07:45:50.810Z,5.40
2018-11-01T07:49:57.772Z,7.33
2018-11-01T07:54:04.618Z,6.70
2018-11-01T07:58:11.347Z,5.73
2018-11-01T08:02:18.317Z,4.97
2018-11-01T08:06:25.072Z,5.57
2018-11-01T08:10:31.881Z,6.17
2018-11-01T08:14:38.891Z,5.90
2018-11-01T08:18:45.539Z,5.50
2018-11-01T08:22:52.233Z,5.17
2018-11-01T08:26:58.915Z,4.70
2018-11-01T08:31:05.702Z,5.33
2018-11-01T08:35:12.790Z,5.60
2018-11-01T08:39:19.645Z,4.80
2018-11-01T08:43:26.423Z,4.83
2018-11-01T08:47:33.075Z,5.33
2018-11-01T08:51:39.746Z,4.97
2018-11-01T08:55:46.428Z,5.60
2018-11-01T08:59:53.161Z,6.23
2018-11-01T09:03:59.908Z,5.70
2018-11-01T09:08:06.879Z,5.83
2018-11-01T09:12:13.661Z,6.10
2018-11-01T09:16:20.389Z,6.97
2018-11-01T09:20:27.083Z,7.63
2018-11-01T09:24:33.790Z,9.83
2018-11-01T09:28:40.618Z,10.60
2018-11-01T09:32:47.446Z,8.63
2018-11-01T09:36:54.061Z,8.30
2018-11-01T09:41:00.749Z,7.10
2018-11-01T09:45:07.916Z,7.40
2018-11-01T09:49:14.610Z,7.40
2018-11-01T09:53:21.291Z,7.23
2018-11-01T09:57:27.990Z,6.93
2018-11-01T10:01:34.691Z,7.83
2018-11-01T10:05:41.428Z,8.87
2018-11-01T10:09:48.130Z,9.23
2018-11-01T10:13:54.794Z,7.73
2018-11-01T10:18:01.981Z,7.93
2018-11-01T10:22:08.435Z,7.40
2018-11-01T10:26:15.060Z,6.57
2018-11-01T10:30:23.787Z,7.07
2018-11-01T10:34:30.601Z,7.13
2018-11-01T10:38:37.176Z,9.67
2018-11-01T10:42:43.883Z,7.70
2018-11-01T10:46:50.561Z,7.10
2018-11-01T10:50:57.877Z,7.20
2018-11-01T10:55:04.557Z,6.80
2018-11-01T10:59:11.270Z,7.97
2018-11-01T11:03:17.985Z,8.07
2018-11-01T11:07:25.120Z,7.13
2018-11-01T11:11:31.826Z,7.70
2018-11-01T11:15:38.511Z,8.30
2018-11-01T11:19:45.304Z,8.97
2018-11-01T11:23:52.043Z,8.03
2018-11-01T11:27:58.716Z,8.60
2018-11-01T11:32:05.421Z,8.23
2018-11-01T11:36:12.096Z,8.43
2018-11-01T11:40:19.126Z,7.93
2018-11-01T11:44:25.941Z,8.07
2018-11-01T11:48:32.637Z,8.43
2018-11-01T11:52:39.252Z,7.77
2018-11-01T11:56:46.131Z,8.50
2018-11-01T12:00:52.799Z,7.93
2018-11-01T12:04:59.633Z,8.17
2018-11-01T12:09:08.261Z,8.37
2018-11-01T12:13:14.883Z,9.37
2018-11-01T12:17:21.672Z,8.60
2018-11-01T12:21:28.375Z,9.10
2018-11-01T12:25:35.210Z,9.40
2018-11-01T12:29:44.113Z,9.23
2018-11-01T12:33:50.783Z,8.60
2018-11-01T12:37:57.536Z,8.67
2018-11-01T12:42:04.390Z,9.43
2018-11-01T12:46:10.970Z,9.50
2018-11-01T12:50:17.719Z,10.60
2018-11-01T12:54:24.702Z,9.87
2018-11-01T12:58:31.385Z,8.93
2018-11-01T13:02:38.264Z,9.60
2018-11-01T13:06:44.926Z,9.43
2018-11-01T13:10:51.780Z,9.23
2018-11-01T13:14:58.888Z,8.70
2018-11-01T13:19:06.189Z,9.10
2018-11-01T13:23:12.841Z,8.67
2018-11-01T13:27:22.254Z,9.07
2018-11-01T13:31:28.928Z,8.50
2018-11-01T13:35:35.656Z,8.73
2018-11-01T13:39:42.370Z,9.03
2018-11-01T13:43:49.038Z,10.27
2018-11-01T13:47:55.839Z,8.97
2018-11-01T13:52:02.469Z,8.40
2018-11-01T13:56:09.161Z,8.63
2018-11-01T14:00:16.658Z,8.77
2018-11-01T14:04:23.331Z,8.97
2018-11-01T14:08:30.867Z,8.80
2018-11-01T14:12:37.727Z,9.20
2018-11-01T14:16:44.439Z,9.93
2018-11-01T14:20:51.511Z,8.47
2018-11-01T14:24:58.486Z,9.43
2018-11-01T14:33:11.917Z,10.00
2018-11-01T14:37:39.659Z,9.53
2018-11-01T14:41:46.513Z,9.83
2018-11-01T14:45:53.197Z,9.33
2018-11-01T14:50:00.196Z,9.37
2018-11-01T14:54:07.832Z,10.17
2018-11-01T14:58:14.881Z,9.57
2018-11-01T15:02:20.322Z,9.13
2018-11-01T15:06:27.387Z,8.97
2018-11-01T15:10:34.115Z,9.13
2018-11-01T15:14:41.992Z,9.33
2018-11-01T15:18:48.725Z,8.83
2018-11-01T15:22:55.501Z,8.47
2018-11-01T15:27:02.648Z,8.40
2018-11-01T15:31:12.187Z,8.80
2018-11-01T15:35:18.935Z,8.27
2018-11-01T15:39:26.084Z,8.43
2018-11-01T15:43:38.673Z,9.60
2018-11-01T15:47:45.432Z,8.97
2018-11-01T15:51:52.321Z,9.30
2018-11-01T15:55:59.385Z,8.77
2018-11-01T16:00:07.606Z,9.53
2018-11-01T16:04:14.399Z,9.10
2018-11-01T16:08:21.270Z,9.50
2018-11-01T16:12:28.010Z,8.77
2018-11-01T16:16:35.042Z,8.90
2018-11-01T16:20:41.733Z,10.10
2018-11-01T16:24:48.483Z,10.13
2018-11-01T16:28:55.298Z,10.63
2018-11-01T16:33:02.126Z,10.57
2018-11-01T16:37:08.889Z,11.43
2018-11-01T16:41:15.801Z,12.73
2018-11-01T16:45:22.582Z,12.20
2018-11-01T16:49:29.367Z,12.87
2018-11-01T16:53:36.169Z,13.97
2018-11-01T16:57:42.987Z,14.50
2018-11-01T17:01:49.777Z,13.07
2018-11-01T17:05:56.512Z,13.20
2018-11-01T17:10:04.015Z,14.30
2018-11-01T17:14:11.412Z,13.83
2018-11-01T17:18:18.347Z,13.63
2018-11-01T17:22:25.037Z,24.63
2018-11-01T17:26:31.988Z,13.70
2018-11-01T17:30:38.793Z,14.70
2018-11-01T17:34:45.514Z,14.13
2018-11-01T17:38:52.444Z,14.63
2018-11-01T17:42:59.285Z,16.43
2018-11-01T17:47:05.976Z,15.67
2018-11-01T17:51:12.837Z,15.53
2018-11-01T17:55:19.634Z,15.67
2018-11-01T17:59:26.276Z,15.47
2018-11-01T18:03:33.010Z,16.67
2018-11-01T18:07:40.544Z,19.60
2018-11-01T18:11:47.305Z,28.20
2018-11-01T18:15:54.152Z,17.10
2018-11-01T18:20:00.882Z,14.57
2018-11-01T18:24:07.674Z,17.23
2018-11-01T18:28:14.469Z,16.53
2018-11-01T18:32:21.227Z,17.10
2018-11-01T18:36:28.039Z,16.80
2018-11-01T18:40:34.799Z,15.40
2018-11-01T18:44:41.672Z,15.37
2018-11-01T18:48:50.907Z,14.97
2018-11-01T18:52:58.161Z,13.73
2018-11-01T18:57:04.999Z,14.60
2018-11-01T19:01:11.884Z,16.37
2018-11-01T19:09:42.417Z,17.07
2018-11-01T19:13:44.815Z,15.97
2018-11-01T19:17:52.073Z,16.60
2018-11-01T19:21:59.043Z,17.60
2018-11-01T19:26:06.406Z,18.07
2018-11-01T19:30:20.973Z,19.03
2018-11-01T19:34:40.254Z,19.43
2018-11-01T19:38:57.441Z,18.73
2018-11-01T19:43:45.038Z,18.47
2018-11-01T19:48:42.393Z,19.07
2018-11-01T19:52:49.354Z,18.50
2018-11-01T19:56:56.182Z,19.00
2018-11-01T20:01:02.945Z,20.33
2018-11-01T20:05:11.022Z,19.43
2018-11-01T20:09:18.491Z,19.50
2018-11-01T20:13:29.550Z,21.30
2018-11-01T20:17:36.244Z,20.97
2018-11-01T20:21:44.234Z,22.87
2018-11-01T20:25:56.689Z,22.63
2018-11-01T20:30:14.266Z,22.37
2018-11-01T20:34:24.643Z,23.13
2018-11-01T20:38:35.298Z,22.63
2018-11-01T20:42:43.511Z,22.40
2018-11-01T20:46:50.409Z,21.57
2018-11-01T20:50:57.279Z,23.10
2018-11-01T20:55:04.102Z,22.33
2018-11-01T20:59:13.348Z,20.97
2018-11-01T21:03:20.496Z,20.47
2018-11-01T21:07:27.329Z,20.47
2018-11-01T21:11:34.294Z,20.07
2018-11-01T21:15:42.159Z,19.07
2018-11-01T21:19:49.080Z,19.33
2018-11-01T21:23:55.885Z,19.80
2018-11-01T21:28:02.533Z,17.13
2018-11-01T21:32:10.015Z,17.87
2018-11-01T21:36:16.797Z,15.17
2018-11-01T21:40:23.539Z,14.90
2018-11-01T21:44:30.322Z,16.17
2018-11-01T21:48:37.079Z,15.80
2018-11-01T21:52:43.915Z,16.57
2018-11-01T21:56:50.563Z,17.30
2018-11-01T22:00:57.270Z,15.27
2018-11-01T22:05:04.030Z,17.07
2018-11-01T22:09:10.763Z,16.03
2018-11-01T22:13:17.462Z,15.17
2018-11-01T22:17:24.231Z,17.43
2018-11-01T22:21:31.244Z,16.17
2018-11-01T22:25:37.947Z,15.90
2018-11-01T22:29:44.749Z,15.60
2018-11-01T22:33:51.496Z,15.20
2018-11-01T22:37:58.208Z,16.13
2018-11-01T22:42:07.471Z,15.83
2018-11-01T22:46:14.227Z,15.63
2018-11-01T22:50:20.953Z,15.47
2018-11-01T22:54:27.679Z,15.17
2018-11-01T22:58:34.402Z,15.67
2018-11-01T23:02:41.278Z,15.67
2018-11-01T23:06:48.129Z,14.97
2018-11-01T23:10:54.741Z,15.27
2018-11-01T23:15:01.515Z,15.17
2018-11-01T23:19:08.329Z,14.80
2018-11-01T23:23:15.113Z,15.87
2018-11-01T23:27:21.829Z,15.67
2018-11-01T23:31:28.540Z,16.57
2018-11-01T23:35:35.315Z,17.43
2018-11-01T23:39:59.264Z,17.97
2018-11-01T23:44:23.479Z,18.33
2018-11-01T23:48:28.964Z,18.40
2018-11-01T23:52:35.672Z,17.17
2018-11-01T23:56:42.485Z,17.77
